• Join FlightAware (Why Join?)
  • Login
  • US Flag 
08:21AM EDT


 

Airport Tracker/Info


-or-


 

Live Flight TrackerFlight Track Log ✈ FIN666 ✈ 13-Nov-2013 ✈ EKCH / CPH - EFHK / HEL

Flight Track Log - Related Links

Times and Time Zones

All times are in EST time to prevent confusion due to time zone crossing. See the FIN666 flight status page for this flight to view local times or setup timezone preferences in your user account.

Time Position Orientation Groundspeed Altitude Reporting Facility
EST Latitude Longitude Course Direction KTS MPH feet Rate Location/Type
07:19AM 55.9164 13.2747 49° Northeast  Level Estimated
07:20AM 55.9905 13.4309 50° Northeast  Level Estimated
07:21AM 56.0644 13.5877 50° Northeast  Level Estimated
07:22AM 56.1381 13.7451 50° Northeast  Level Estimated
07:23AM 56.2149 13.9101 50° Northeast  Level Estimated
07:24AM 56.2915 14.0759 50° Northeast  Level Estimated
07:25AM 56.3679 14.2423 50° Northeast  Level Estimated
07:26AM 56.4440 14.4093 50° Northeast  Level Estimated
07:27AM 56.5200 14.5771 51° Northeast  Level Estimated
07:28AM 56.5956 14.7455 51° Northeast  Level Estimated
07:29AM 56.6711 14.9146 51° Northeast  Level Estimated
07:30AM 56.7463 15.0843 51° Northeast  Level Estimated
07:31AM 56.8213 15.2548 51° Northeast  Level Estimated
07:32AM 56.8961 15.4259 51° Northeast  Level Estimated
07:33AM 56.9706 15.5977 51° Northeast  Level Estimated
07:34AM 57.0449 15.7702 52° Northeast  Level Estimated
07:35AM 57.1190 15.9434 52° Northeast  Level Estimated
07:36AM 57.1928 16.1173 52° Northeast  Level Estimated
07:37AM 57.2664 16.2918 52° Northeast  Level Estimated
07:38AM 57.3397 16.4671 52° Northeast  Level Estimated
07:39AM 57.4128 16.6431 52° Northeast  Level Estimated
07:40AM 57.4857 16.8197 52° Northeast  Level Estimated
07:41AM 57.5583 16.9971 53° Northeast  Level Estimated
07:42AM 57.6306 17.1752 53° Northeast  Level Estimated
07:43AM 57.7027 17.3540 53° Northeast  Level Estimated
07:44AM 57.7746 17.5335 53° Northeast  Level Estimated
07:45AM 57.8462 17.7137 53° Northeast  Level Estimated
07:46AM 57.9175 17.8947 53° Northeast  Level Estimated
07:47AM 57.9886 18.0763 54° Northeast  Level Estimated
07:48AM 58.0594 18.2587 54° Northeast  Level Estimated
07:49AM 58.1299 18.4418 54° Northeast  Level Estimated
07:50AM 58.2002 18.6257 54° Northeast  Level Estimated
07:51AM 58.2702 18.8102 54° Northeast  Level Estimated
07:52AM 58.3400 18.9955 54° Northeast  Level Estimated
07:53AM 58.4095 19.1815 54° Northeast  Level Estimated
07:54AM 58.4787 19.3683 55° Northeast  Level Estimated
07:55AM 58.5476 19.5557 55° Northeast  Level Estimated
07:56AM 58.6163 19.7440 55° Northeast  Level Estimated
07:57AM 58.6847 19.9329 55° Northeast  Level Estimated
07:58AM 58.7528 20.1226 55° Northeast  Level Estimated
07:59AM 58.8207 20.3131 55° Northeast  Level Estimated
08:00AM 58.8882 20.5043 56° Northeast  Level Estimated
08:01AM 58.9555 20.6962 56° Northeast  Level Estimated
08:02AM 59.0225 20.8889 56° Northeast  Level Estimated
08:03AM 59.0892 21.0823 56° Northeast  Level Estimated
08:04AM 59.1556 21.2765 56° Northeast  Level Estimated
08:05AM 59.2208 21.4686 56° Northeast  Level Estimated
08:06AM 59.2856 21.6614 57° Northeast  Level Estimated
08:07AM 59.3502 21.8550 57° Northeast  Level Estimated
08:08AM 59.4145 22.0492 57° Northeast  Level Estimated
08:09AM 59.4785 22.2442 57° Northeast  Level Estimated
08:10AM 59.5422 22.4400 57° Northeast  Level Estimated
08:11AM 59.6056 22.6365 57° Northeast  Level Estimated
08:12AM 59.6688 22.8337 58° Northeast  Level Estimated
08:13AM 59.7316 23.0317 58° Northeast  Level Estimated
08:14AM 59.7941 23.2304 58° Northeast  Level Estimated
08:15AM 59.8563 23.4299 58° Northeast  Level Estimated
08:16AM 59.9183 23.6301 58° Northeast  Level Estimated
08:17AM 59.9799 23.8311 58° Northeast  Level Estimated
08:18AM 60.0412 24.0328 59° Northeast  Level Estimated
08:19AM 60.1022 24.2352 59° Northeast  Level Estimated
08:20AM 60.1629 24.4384 59° Northeast  Level Estimated
08:21AM 60.2233 24.6424 59° Northeast  Level Estimated
08:22AM 60.2833 24.8471 59° Northeast  Level Estimated
08:23AM 60.3172 24.9633 59° Northeast  Level Estimated
08:24AM 60.3172 24.9633 37° Northeast  Level Estimated
08:25AM 60.3172 24.9633 37° Northeast  Level Estimated
08:26AM 60.3172 24.9633 37° Northeast  Level Estimated
08:27AM 60.3172 24.9633 37° Northeast  Level Estimated
08:28AM 60.3172 24.9633 37° Northeast  Level Estimated
08:29AM 60.3172 24.9633 37° Northeast  Level Estimated
08:30AM 60.3172 24.9633 37° Northeast  Level Estimated
08:31AM 60.3172 24.9633 37° Northeast  Level Estimated
08:32AM 60.3172 24.9633 37° Northeast  Level Estimated
08:33AM 60.3172 24.9633 37° Northeast  Level Estimated
08:34AM 60.3172 24.9633 37° Northeast  Level Estimated
08:35AM 60.3172 24.9633 37° Northeast  Level Estimated
08:36AM 60.3172 24.9633 37° Northeast  Level Estimated
08:37AM 60.3172 24.9633 37° Northeast  Level Estimated
08:38AM 60.3172 24.9633 37° Northeast  Level Estimated